sensor_id;sensor_type;location;lat;lon;timestamp;P1;durP1;ratioP1;P2;durP2;ratioP2
16612;SDS011;8419;52.358;9.752;2022-10-16T00:02:18;3.85;;;0.60;;
16612;SDS011;8419;52.358;9.752;2022-10-16T00:05:04;1.27;;;0.95;;
16612;SDS011;8419;52.358;9.752;2022-10-16T00:07:50;0.73;;;0.50;;
16612;SDS011;8419;52.358;9.752;2022-10-16T00:10:36;1.25;;;0.70;;
16612;SDS011;8419;52.358;9.752;2022-10-16T00:13:21;4.15;;;0.82;;
16612;SDS011;8419;52.358;9.752;2022-10-16T00:16:07;2.92;;;0.88;;
16612;SDS011;8419;52.358;9.752;2022-10-16T00:18:54;1.60;;;0.77;;
16612;SDS011;8419;52.358;9.752;2022-10-16T00:21:40;1.33;;;0.60;;
16612;SDS011;8419;52.358;9.752;2022-10-16T00:24:26;1.95;;;0.50;;
16612;SDS011;8419;52.358;9.752;2022-10-16T00:27:12;0.50;;;0.40;;
16612;SDS011;8419;52.358;9.752;2022-10-16T00:29:58;0.52;;;0.45;;
16612;SDS011;8419;52.358;9.752;2022-10-16T00:32:44;1.23;;;0.52;;
16612;SDS011;8419;52.358;9.752;2022-10-16T00:35:30;4.43;;;0.60;;
16612;SDS011;8419;52.358;9.752;2022-10-16T00:38:15;0.77;;;0.60;;
16612;SDS011;8419;52.358;9.752;2022-10-16T00:41:01;0.60;;;0.60;;
16612;SDS011;8419;52.358;9.752;2022-10-16T00:43:47;0.47;;;0.47;;
16612;SDS011;8419;52.358;9.752;2022-10-16T00:46:35;0.90;;;0.60;;
16612;SDS011;8419;52.358;9.752;2022-10-16T00:49:23;0.80;;;0.45;;
16612;SDS011;8419;52.358;9.752;2022-10-16T00:52:09;0.80;;;0.70;;
16612;SDS011;8419;52.358;9.752;2022-10-16T00:54:56;0.88;;;0.73;;
16612;SDS011;8419;52.358;9.752;2022-10-16T00:57:43;1.50;;;0.70;;
16612;SDS011;8419;52.358;9.752;2022-10-16T01:00:29;2.95;;;0.47;;
16612;SDS011;8419;52.358;9.752;2022-10-16T01:03:25;1.40;;;0.85;;
16612;SDS011;8419;52.358;9.752;2022-10-16T01:06:24;1.60;;;0.65;;
16612;SDS011;8419;52.358;9.752;2022-10-16T01:09:21;1.25;;;0.73;;
16612;SDS011;8419;52.358;9.752;2022-10-16T01:12:14;3.12;;;1.00;;
16612;SDS011;8419;52.358;9.752;2022-10-16T01:15:08;0.75;;;0.65;;
16612;SDS011;8419;52.358;9.752;2022-10-16T01:18:00;1.10;;;0.98;;
16612;SDS011;8419;52.358;9.752;2022-10-16T01:20:53;1.62;;;0.90;;
16612;SDS011;8419;52.358;9.752;2022-10-16T01:23:46;2.33;;;0.93;;
16612;SDS011;8419;52.358;9.752;2022-10-16T01:26:40;1.30;;;1.20;;
16612;SDS011;8419;52.358;9.752;2022-10-16T01:29:36;5.87;;;0.90;;
16612;SDS011;8419;52.358;9.752;2022-10-16T01:32:28;1.75;;;0.80;;
16612;SDS011;8419;52.358;9.752;2022-10-16T01:35:18;1.58;;;0.98;;
16612;SDS011;8419;52.358;9.752;2022-10-16T01:38:12;1.62;;;1.00;;
16612;SDS011;8419;52.358;9.752;2022-10-16T01:41:03;1.25;;;0.80;;
16612;SDS011;8419;52.358;9.752;2022-10-16T01:43:56;2.70;;;1.12;;
16612;SDS011;8419;52.358;9.752;2022-10-16T01:46:47;2.33;;;1.17;;
16612;SDS011;8419;52.358;9.752;2022-10-16T01:49:36;4.60;;;1.25;;
16612;SDS011;8419;52.358;9.752;2022-10-16T01:52:25;5.15;;;1.02;;
16612;SDS011;8419;52.358;9.752;2022-10-16T01:55:16;4.00;;;1.20;;
16612;SDS011;8419;52.358;9.752;2022-10-16T01:58:07;6.03;;;1.00;;
16612;SDS011;8419;52.358;9.752;2022-10-16T02:00:54;1.75;;;1.30;;
16612;SDS011;8419;52.358;9.752;2022-10-16T02:03:43;1.70;;;0.88;;
16612;SDS011;8419;52.358;9.752;2022-10-16T02:06:31;3.60;;;1.30;;
16612;SDS011;8419;52.358;9.752;2022-10-16T02:09:17;4.50;;;1.10;;
16612;SDS011;8419;52.358;9.752;2022-10-16T02:12:03;2.35;;;0.95;;
16612;SDS011;8419;52.358;9.752;2022-10-16T02:14:54;1.10;;;1.00;;
16612;SDS011;8419;52.358;9.752;2022-10-16T02:17:41;1.48;;;0.88;;
16612;SDS011;8419;52.358;9.752;2022-10-16T02:20:27;1.45;;;0.77;;
16612;SDS011;8419;52.358;9.752;2022-10-16T02:23:19;4.60;;;0.95;;
16612;SDS011;8419;52.358;9.752;2022-10-16T02:26:09;2.47;;;1.20;;
16612;SDS011;8419;52.358;9.752;2022-10-16T02:29:00;1.55;;;1.12;;
16612;SDS011;8419;52.358;9.752;2022-10-16T02:31:50;1.00;;;0.80;;
16612;SDS011;8419;52.358;9.752;2022-10-16T02:34:40;1.70;;;0.88;;
16612;SDS011;8419;52.358;9.752;2022-10-16T02:37:26;2.97;;;0.93;;
16612;SDS011;8419;52.358;9.752;2022-10-16T02:40:13;1.00;;;0.85;;
16612;SDS011;8419;52.358;9.752;2022-10-16T02:43:02;2.55;;;1.10;;
16612;SDS011;8419;52.358;9.752;2022-10-16T02:45:49;1.90;;;1.15;;
16612;SDS011;8419;52.358;9.752;2022-10-16T02:48:35;2.15;;;1.10;;
16612;SDS011;8419;52.358;9.752;2022-10-16T02:51:21;3.30;;;1.20;;
16612;SDS011;8419;52.358;9.752;2022-10-16T02:54:09;2.33;;;1.05;;
16612;SDS011;8419;52.358;9.752;2022-10-16T02:56:55;1.85;;;1.00;;
16612;SDS011;8419;52.358;9.752;2022-10-16T02:59:41;1.75;;;1.12;;
16612;SDS011;8419;52.358;9.752;2022-10-16T03:02:27;5.93;;;1.33;;
16612;SDS011;8419;52.358;9.752;2022-10-16T03:05:12;1.48;;;1.23;;
16612;SDS011;8419;52.358;9.752;2022-10-16T03:07:59;3.55;;;1.17;;
16612;SDS011;8419;52.358;9.752;2022-10-16T03:10:45;6.20;;;1.65;;
16612;SDS011;8419;52.358;9.752;2022-10-16T03:13:30;3.50;;;1.25;;
16612;SDS011;8419;52.358;9.752;2022-10-16T03:16:16;2.85;;;1.35;;
16612;SDS011;8419;52.358;9.752;2022-10-16T03:19:02;2.70;;;1.58;;
16612;SDS011;8419;52.358;9.752;2022-10-16T03:21:47;3.15;;;1.10;;
16612;SDS011;8419;52.358;9.752;2022-10-16T03:24:33;8.38;;;1.30;;
16612;SDS011;8419;52.358;9.752;2022-10-16T03:27:19;1.92;;;1.30;;
16612;SDS011;8419;52.358;9.752;2022-10-16T03:30:06;1.62;;;1.20;;
16612;SDS011;8419;52.358;9.752;2022-10-16T03:32:53;4.10;;;1.20;;
16612;SDS011;8419;52.358;9.752;2022-10-16T03:35:39;2.10;;;1.10;;
16612;SDS011;8419;52.358;9.752;2022-10-16T03:38:25;5.00;;;1.50;;
16612;SDS011;8419;52.358;9.752;2022-10-16T03:41:11;1.55;;;1.20;;
16612;SDS011;8419;52.358;9.752;2022-10-16T03:43:57;3.65;;;1.40;;
16612;SDS011;8419;52.358;9.752;2022-10-16T03:46:43;1.92;;;1.55;;
16612;SDS011;8419;52.358;9.752;2022-10-16T03:49:29;2.28;;;1.15;;
16612;SDS011;8419;52.358;9.752;2022-10-16T03:52:15;2.97;;;1.75;;
16612;SDS011;8419;52.358;9.752;2022-10-16T03:55:00;10.00;;;1.95;;
16612;SDS011;8419;52.358;9.752;2022-10-16T03:57:46;2.35;;;1.20;;
16612;SDS011;8419;52.358;9.752;2022-10-16T04:00:32;2.62;;;1.60;;
16612;SDS011;8419;52.358;9.752;2022-10-16T04:03:18;2.28;;;1.40;;
16612;SDS011;8419;52.358;9.752;2022-10-16T04:06:04;2.95;;;1.55;;
16612;SDS011;8419;52.358;9.752;2022-10-16T04:08:50;1.40;;;1.10;;
16612;SDS011;8419;52.358;9.752;2022-10-16T04:11:36;1.62;;;1.17;;
16612;SDS011;8419;52.358;9.752;2022-10-16T04:14:22;4.22;;;1.10;;
16612;SDS011;8419;52.358;9.752;2022-10-16T04:17:09;2.42;;;1.42;;
16612;SDS011;8419;52.358;9.752;2022-10-16T04:19:54;2.60;;;1.37;;
16612;SDS011;8419;52.358;9.752;2022-10-16T04:22:40;1.37;;;1.15;;
16612;SDS011;8419;52.358;9.752;2022-10-16T04:25:25;3.70;;;1.55;;
16612;SDS011;8419;52.358;9.752;2022-10-16T04:28:11;4.40;;;1.55;;
16612;SDS011;8419;52.358;9.752;2022-10-16T04:30:57;2.28;;;1.48;;
16612;SDS011;8419;52.358;9.752;2022-10-16T04:33:43;1.85;;;1.60;;
16612;SDS011;8419;52.358;9.752;2022-10-16T04:36:29;4.20;;;1.60;;
16612;SDS011;8419;52.358;9.752;2022-10-16T04:39:15;1.45;;;1.25;;
16612;SDS011;8419;52.358;9.752;2022-10-16T04:42:00;3.30;;;1.40;;
16612;SDS011;8419;52.358;9.752;2022-10-16T04:44:47;2.08;;;1.33;;
16612;SDS011;8419;52.358;9.752;2022-10-16T04:47:32;3.37;;;1.50;;
16612;SDS011;8419;52.358;9.752;2022-10-16T04:50:18;2.08;;;1.75;;
16612;SDS011;8419;52.358;9.752;2022-10-16T04:53:06;2.37;;;1.87;;
16612;SDS011;8419;52.358;9.752;2022-10-16T04:55:51;6.60;;;1.70;;
16612;SDS011;8419;52.358;9.752;2022-10-16T04:58:37;3.50;;;1.42;;
16612;SDS011;8419;52.358;9.752;2022-10-16T05:01:22;2.90;;;1.50;;
16612;SDS011;8419;52.358;9.752;2022-10-16T05:04:08;2.00;;;1.80;;
16612;SDS011;8419;52.358;9.752;2022-10-16T05:06:54;4.05;;;1.80;;
16612;SDS011;8419;52.358;9.752;2022-10-16T05:09:41;2.30;;;1.90;;
16612;SDS011;8419;52.358;9.752;2022-10-16T05:12:27;4.35;;;1.95;;
16612;SDS011;8419;52.358;9.752;2022-10-16T05:15:12;3.33;;;2.08;;
16612;SDS011;8419;52.358;9.752;2022-10-16T05:17:58;3.78;;;1.58;;
16612;SDS011;8419;52.358;9.752;2022-10-16T05:20:44;2.40;;;2.05;;
16612;SDS011;8419;52.358;9.752;2022-10-16T05:23:29;2.05;;;1.70;;
16612;SDS011;8419;52.358;9.752;2022-10-16T05:26:15;3.03;;;1.92;;
16612;SDS011;8419;52.358;9.752;2022-10-16T05:29:01;2.60;;;1.60;;
16612;SDS011;8419;52.358;9.752;2022-10-16T05:31:49;2.30;;;1.95;;
16612;SDS011;8419;52.358;9.752;2022-10-16T05:34:38;3.72;;;2.17;;
16612;SDS011;8419;52.358;9.752;2022-10-16T05:37:23;5.68;;;2.08;;
16612;SDS011;8419;52.358;9.752;2022-10-16T05:40:09;4.05;;;2.08;;
16612;SDS011;8419;52.358;9.752;2022-10-16T05:42:56;2.92;;;1.50;;
16612;SDS011;8419;52.358;9.752;2022-10-16T05:45:42;4.30;;;1.90;;
16612;SDS011;8419;52.358;9.752;2022-10-16T05:48:28;3.62;;;2.15;;
16612;SDS011;8419;52.358;9.752;2022-10-16T05:51:14;4.18;;;1.80;;
16612;SDS011;8419;52.358;9.752;2022-10-16T05:54:00;7.40;;;2.65;;
16612;SDS011;8419;52.358;9.752;2022-10-16T05:56:46;4.05;;;1.98;;
16612;SDS011;8419;52.358;9.752;2022-10-16T05:59:31;2.28;;;1.95;;
16612;SDS011;8419;52.358;9.752;2022-10-16T06:02:19;3.90;;;2.15;;
16612;SDS011;8419;52.358;9.752;2022-10-16T06:05:05;2.05;;;1.85;;
16612;SDS011;8419;52.358;9.752;2022-10-16T06:07:51;2.33;;;1.80;;
16612;SDS011;8419;52.358;9.752;2022-10-16T06:10:37;3.92;;;1.67;;
16612;SDS011;8419;52.358;9.752;2022-10-16T06:13:22;2.80;;;1.50;;
16612;SDS011;8419;52.358;9.752;2022-10-16T06:16:08;2.62;;;2.05;;
16612;SDS011;8419;52.358;9.752;2022-10-16T06:18:55;1.70;;;1.37;;
16612;SDS011;8419;52.358;9.752;2022-10-16T06:21:44;2.67;;;1.42;;
16612;SDS011;8419;52.358;9.752;2022-10-16T06:24:30;3.95;;;1.70;;
16612;SDS011;8419;52.358;9.752;2022-10-16T06:27:15;2.28;;;1.83;;
16612;SDS011;8419;52.358;9.752;2022-10-16T06:30:01;1.92;;;1.50;;
16612;SDS011;8419;52.358;9.752;2022-10-16T06:32:49;4.75;;;1.50;;
16612;SDS011;8419;52.358;9.752;2022-10-16T06:35:36;3.65;;;1.80;;
16612;SDS011;8419;52.358;9.752;2022-10-16T06:38:21;2.00;;;1.60;;
16612;SDS011;8419;52.358;9.752;2022-10-16T06:41:07;2.85;;;1.50;;
16612;SDS011;8419;52.358;9.752;2022-10-16T06:43:56;3.05;;;1.30;;
16612;SDS011;8419;52.358;9.752;2022-10-16T06:46:42;3.28;;;2.17;;
16612;SDS011;8419;52.358;9.752;2022-10-16T06:49:27;3.70;;;1.58;;
16612;SDS011;8419;52.358;9.752;2022-10-16T06:52:13;2.28;;;1.70;;
16612;SDS011;8419;52.358;9.752;2022-10-16T06:54:59;2.37;;;1.73;;
16612;SDS011;8419;52.358;9.752;2022-10-16T06:57:47;4.15;;;1.60;;
16612;SDS011;8419;52.358;9.752;2022-10-16T07:00:33;3.97;;;1.60;;
16612;SDS011;8419;52.358;9.752;2022-10-16T07:03:18;2.42;;;1.67;;
16612;SDS011;8419;52.358;9.752;2022-10-16T07:06:05;3.30;;;1.87;;
16612;SDS011;8419;52.358;9.752;2022-10-16T07:08:52;2.25;;;1.80;;
16612;SDS011;8419;52.358;9.752;2022-10-16T07:11:40;3.37;;;1.45;;
16612;SDS011;8419;52.358;9.752;2022-10-16T07:14:25;2.85;;;1.58;;
16612;SDS011;8419;52.358;9.752;2022-10-16T07:17:12;2.10;;;1.77;;
16612;SDS011;8419;52.358;9.752;2022-10-16T07:19:57;2.50;;;1.40;;
16612;SDS011;8419;52.358;9.752;2022-10-16T07:22:44;1.58;;;1.25;;
16612;SDS011;8419;52.358;9.752;2022-10-16T07:25:29;1.42;;;1.10;;
16612;SDS011;8419;52.358;9.752;2022-10-16T07:28:15;2.15;;;1.08;;
16612;SDS011;8419;52.358;9.752;2022-10-16T07:31:01;2.03;;;1.30;;
16612;SDS011;8419;52.358;9.752;2022-10-16T07:33:47;13.18;;;1.70;;
16612;SDS011;8419;52.358;9.752;2022-10-16T07:36:34;1.92;;;1.20;;
16612;SDS011;8419;52.358;9.752;2022-10-16T07:39:20;1.48;;;1.25;;
16612;SDS011;8419;52.358;9.752;2022-10-16T07:42:05;1.15;;;0.77;;
16612;SDS011;8419;52.358;9.752;2022-10-16T07:44:51;1.17;;;0.95;;
16612;SDS011;8419;52.358;9.752;2022-10-16T07:47:37;2.87;;;1.35;;
16612;SDS011;8419;52.358;9.752;2022-10-16T07:50:23;4.20;;;1.40;;
16612;SDS011;8419;52.358;9.752;2022-10-16T07:53:09;1.08;;;0.95;;
16612;SDS011;8419;52.358;9.752;2022-10-16T07:55:57;2.67;;;1.80;;
16612;SDS011;8419;52.358;9.752;2022-10-16T07:58:43;1.83;;;1.10;;
16612;SDS011;8419;52.358;9.752;2022-10-16T08:01:30;1.73;;;1.15;;
16612;SDS011;8419;52.358;9.752;2022-10-16T08:04:15;4.32;;;0.82;;
16612;SDS011;8419;52.358;9.752;2022-10-16T08:07:02;1.12;;;0.90;;
16612;SDS011;8419;52.358;9.752;2022-10-16T08:09:49;3.20;;;0.95;;
16612;SDS011;8419;52.358;9.752;2022-10-16T08:12:35;1.60;;;1.00;;
16612;SDS011;8419;52.358;9.752;2022-10-16T08:15:21;0.90;;;0.73;;
16612;SDS011;8419;52.358;9.752;2022-10-16T08:18:06;1.00;;;0.90;;
16612;SDS011;8419;52.358;9.752;2022-10-16T08:20:57;1.95;;;0.80;;
16612;SDS011;8419;52.358;9.752;2022-10-16T08:23:44;1.65;;;0.90;;
16612;SDS011;8419;52.358;9.752;2022-10-16T08:26:30;1.33;;;1.00;;
16612;SDS011;8419;52.358;9.752;2022-10-16T08:29:16;1.25;;;0.80;;
16612;SDS011;8419;52.358;9.752;2022-10-16T08:32:03;2.05;;;1.05;;
16612;SDS011;8419;52.358;9.752;2022-10-16T08:34:49;1.23;;;0.80;;
16612;SDS011;8419;52.358;9.752;2022-10-16T08:37:35;0.60;;;0.60;;
16612;SDS011;8419;52.358;9.752;2022-10-16T08:40:25;1.37;;;0.70;;
16612;SDS011;8419;52.358;9.752;2022-10-16T08:43:19;6.60;;;0.60;;
16612;SDS011;8419;52.358;9.752;2022-10-16T08:46:19;2.75;;;0.75;;
16612;SDS011;8419;52.358;9.752;2022-10-16T08:49:13;1.70;;;0.50;;
16612;SDS011;8419;52.358;9.752;2022-10-16T08:51:59;0.62;;;0.62;;
16612;SDS011;8419;52.358;9.752;2022-10-16T08:54:45;2.75;;;0.90;;
16612;SDS011;8419;52.358;9.752;2022-10-16T08:57:36;0.75;;;0.75;;
16612;SDS011;8419;52.358;9.752;2022-10-16T09:00:22;5.75;;;1.00;;
16612;SDS011;8419;52.358;9.752;2022-10-16T09:03:13;1.33;;;0.70;;
16612;SDS011;8419;52.358;9.752;2022-10-16T09:06:09;0.90;;;0.73;;
16612;SDS011;8419;52.358;9.752;2022-10-16T09:09:08;2.25;;;0.98;;
16612;SDS011;8419;52.358;9.752;2022-10-16T09:12:08;1.20;;;0.88;;
16612;SDS011;8419;52.358;9.752;2022-10-16T09:15:00;1.00;;;0.60;;
16612;SDS011;8419;52.358;9.752;2022-10-16T09:17:54;0.95;;;0.70;;
16612;SDS011;8419;52.358;9.752;2022-10-16T09:20:49;0.98;;;0.47;;
16612;SDS011;8419;52.358;9.752;2022-10-16T09:23:37;2.58;;;0.90;;
16612;SDS011;8419;52.358;9.752;2022-10-16T09:26:23;3.05;;;0.90;;
16612;SDS011;8419;52.358;9.752;2022-10-16T09:29:11;1.20;;;0.80;;
16612;SDS011;8419;52.358;9.752;2022-10-16T09:32:05;1.00;;;0.52;;
16612;SDS011;8419;52.358;9.752;2022-10-16T09:34:56;1.30;;;0.75;;
16612;SDS011;8419;52.358;9.752;2022-10-16T09:37:42;1.75;;;0.93;;
16612;SDS011;8419;52.358;9.752;2022-10-16T09:40:32;0.82;;;0.60;;
16612;SDS011;8419;52.358;9.752;2022-10-16T09:43:22;0.50;;;0.50;;
16612;SDS011;8419;52.358;9.752;2022-10-16T09:46:21;0.32;;;0.32;;
16612;SDS011;8419;52.358;9.752;2022-10-16T09:49:19;1.83;;;0.93;;
16612;SDS011;8419;52.358;9.752;2022-10-16T09:52:11;0.80;;;0.75;;
16612;SDS011;8419;52.358;9.752;2022-10-16T09:54:58;0.55;;;0.40;;
16612;SDS011;8419;52.358;9.752;2022-10-16T09:57:49;2.40;;;0.40;;
16612;SDS011;8419;52.358;9.752;2022-10-16T10:00:35;4.12;;;0.50;;
16612;SDS011;8419;52.358;9.752;2022-10-16T10:03:32;1.02;;;0.50;;
16612;SDS011;8419;52.358;9.752;2022-10-16T10:06:24;0.80;;;0.57;;
16612;SDS011;8419;52.358;9.752;2022-10-16T10:09:17;3.70;;;0.60;;
16612;SDS011;8419;52.358;9.752;2022-10-16T10:12:05;0.40;;;0.32;;
16612;SDS011;8419;52.358;9.752;2022-10-16T10:15:04;0.55;;;0.52;;
16612;SDS011;8419;52.358;9.752;2022-10-16T10:17:56;0.30;;;0.30;;
16612;SDS011;8419;52.358;9.752;2022-10-16T10:20:42;3.12;;;0.77;;
16612;SDS011;8419;52.358;9.752;2022-10-16T10:23:28;0.65;;;0.43;;
16612;SDS011;8419;52.358;9.752;2022-10-16T10:26:18;1.48;;;0.45;;
16612;SDS011;8419;52.358;9.752;2022-10-16T10:29:10;1.25;;;0.75;;
16612;SDS011;8419;52.358;9.752;2022-10-16T10:32:05;0.65;;;0.65;;
16612;SDS011;8419;52.358;9.752;2022-10-16T10:35:05;0.80;;;0.40;;
16612;SDS011;8419;52.358;9.752;2022-10-16T10:38:05;0.60;;;0.45;;
16612;SDS011;8419;52.358;9.752;2022-10-16T10:41:04;2.28;;;0.60;;
16612;SDS011;8419;52.358;9.752;2022-10-16T10:44:05;3.72;;;0.98;;
16612;SDS011;8419;52.358;9.752;2022-10-16T10:47:03;4.28;;;0.45;;
16612;SDS011;8419;52.358;9.752;2022-10-16T10:50:01;2.40;;;0.37;;
16612;SDS011;8419;52.358;9.752;2022-10-16T10:52:55;1.27;;;0.43;;
16612;SDS011;8419;52.358;9.752;2022-10-16T10:55:48;2.75;;;0.70;;
16612;SDS011;8419;52.358;9.752;2022-10-16T10:59:05;0.95;;;0.60;;
16612;SDS011;8419;52.358;9.752;2022-10-16T11:02:05;1.08;;;0.50;;
16612;SDS011;8419;52.358;9.752;2022-10-16T11:08:19;1.25;;;0.43;;
16612;SDS011;8419;52.358;9.752;2022-10-16T11:11:10;1.08;;;0.60;;
16612;SDS011;8419;52.358;9.752;2022-10-16T11:14:03;0.50;;;0.40;;
16612;SDS011;8419;52.358;9.752;2022-10-16T11:16:56;0.70;;;0.40;;
16612;SDS011;8419;52.358;9.752;2022-10-16T11:19:48;2.53;;;0.80;;
16612;SDS011;8419;52.358;9.752;2022-10-16T11:22:39;1.55;;;0.57;;
16612;SDS011;8419;52.358;9.752;2022-10-16T11:25:31;2.45;;;0.60;;
16612;SDS011;8419;52.358;9.752;2022-10-16T11:28:20;2.67;;;0.60;;
16612;SDS011;8419;52.358;9.752;2022-10-16T11:31:13;0.37;;;0.37;;
16612;SDS011;8419;52.358;9.752;2022-10-16T11:34:05;1.87;;;0.47;;
16612;SDS011;8419;52.358;9.752;2022-10-16T11:37:02;1.65;;;0.50;;
16612;SDS011;8419;52.358;9.752;2022-10-16T11:39:57;2.10;;;0.50;;
16612;SDS011;8419;52.358;9.752;2022-10-16T11:42:50;1.92;;;0.80;;
16612;SDS011;8419;52.358;9.752;2022-10-16T11:45:43;1.62;;;0.50;;
16612;SDS011;8419;52.358;9.752;2022-10-16T11:48:33;2.00;;;0.30;;
16612;SDS011;8419;52.358;9.752;2022-10-16T11:51:26;2.05;;;0.60;;
16612;SDS011;8419;52.358;9.752;2022-10-16T11:54:21;0.75;;;0.65;;
16612;SDS011;8419;52.358;9.752;2022-10-16T11:57:14;0.82;;;0.50;;
16612;SDS011;8419;52.358;9.752;2022-10-16T12:00:05;1.35;;;0.50;;
16612;SDS011;8419;52.358;9.752;2022-10-16T12:03:00;0.90;;;0.30;;
16612;SDS011;8419;52.358;9.752;2022-10-16T12:06:00;0.47;;;0.47;;
16612;SDS011;8419;52.358;9.752;2022-10-16T12:09:09;2.10;;;0.60;;
16612;SDS011;8419;52.358;9.752;2022-10-16T12:12:04;2.78;;;0.85;;
16612;SDS011;8419;52.358;9.752;2022-10-16T12:15:19;0.60;;;0.60;;
16612;SDS011;8419;52.358;9.752;2022-10-16T12:18:07;1.08;;;0.50;;
16612;SDS011;8419;52.358;9.752;2022-10-16T12:21:07;3.22;;;0.50;;
16612;SDS011;8419;52.358;9.752;2022-10-16T12:23:54;1.25;;;0.30;;
16612;SDS011;8419;52.358;9.752;2022-10-16T12:26:43;1.37;;;0.50;;
16612;SDS011;8419;52.358;9.752;2022-10-16T12:29:32;1.00;;;0.60;;
16612;SDS011;8419;52.358;9.752;2022-10-16T12:32:23;2.62;;;0.47;;
16612;SDS011;8419;52.358;9.752;2022-10-16T12:35:19;1.23;;;0.40;;
16612;SDS011;8419;52.358;9.752;2022-10-16T12:38:12;2.05;;;0.60;;
16612;SDS011;8419;52.358;9.752;2022-10-16T12:41:03;1.50;;;0.30;;
16612;SDS011;8419;52.358;9.752;2022-10-16T12:43:51;3.12;;;0.70;;
16612;SDS011;8419;52.358;9.752;2022-10-16T12:46:38;0.75;;;0.50;;
16612;SDS011;8419;52.358;9.752;2022-10-16T12:49:30;1.65;;;0.47;;
16612;SDS011;8419;52.358;9.752;2022-10-16T12:52:24;1.23;;;0.47;;
16612;SDS011;8419;52.358;9.752;2022-10-16T12:55:12;1.95;;;0.80;;
16612;SDS011;8419;52.358;9.752;2022-10-16T12:58:09;2.60;;;0.55;;
16612;SDS011;8419;52.358;9.752;2022-10-16T13:01:06;1.08;;;0.40;;
16612;SDS011;8419;52.358;9.752;2022-10-16T13:04:13;0.65;;;0.37;;
16612;SDS011;8419;52.358;9.752;2022-10-16T13:07:19;0.90;;;0.30;;
16612;SDS011;8419;52.358;9.752;2022-10-16T13:10:25;0.95;;;0.40;;
16612;SDS011;8419;52.358;9.752;2022-10-16T13:13:22;2.33;;;0.50;;
16612;SDS011;8419;52.358;9.752;2022-10-16T13:16:23;2.58;;;0.50;;
16612;SDS011;8419;52.358;9.752;2022-10-16T13:19:22;0.52;;;0.40;;
16612;SDS011;8419;52.358;9.752;2022-10-16T13:22:22;0.55;;;0.40;;
16612;SDS011;8419;52.358;9.752;2022-10-16T13:25:18;0.62;;;0.43;;
16612;SDS011;8419;52.358;9.752;2022-10-16T13:28:15;0.32;;;0.28;;
16612;SDS011;8419;52.358;9.752;2022-10-16T13:31:04;1.70;;;0.50;;
16612;SDS011;8419;52.358;9.752;2022-10-16T13:33:58;1.48;;;0.60;;
16612;SDS011;8419;52.358;9.752;2022-10-16T13:36:45;0.80;;;0.52;;
16612;SDS011;8419;52.358;9.752;2022-10-16T13:39:37;1.25;;;0.50;;
16612;SDS011;8419;52.358;9.752;2022-10-16T13:42:23;2.12;;;0.60;;
16612;SDS011;8419;52.358;9.752;2022-10-16T13:45:17;0.57;;;0.30;;
16612;SDS011;8419;52.358;9.752;2022-10-16T13:48:05;0.30;;;0.30;;
16612;SDS011;8419;52.358;9.752;2022-10-16T13:51:00;3.28;;;0.50;;
16612;SDS011;8419;52.358;9.752;2022-10-16T13:53:47;2.08;;;0.47;;
16612;SDS011;8419;52.358;9.752;2022-10-16T13:56:33;0.70;;;0.20;;
16612;SDS011;8419;52.358;9.752;2022-10-16T13:59:24;0.50;;;0.32;;
16612;SDS011;8419;52.358;9.752;2022-10-16T14:02:17;0.95;;;0.70;;
16612;SDS011;8419;52.358;9.752;2022-10-16T14:05:08;1.67;;;0.45;;
16612;SDS011;8419;52.358;9.752;2022-10-16T14:07:55;1.35;;;0.70;;
16612;SDS011;8419;52.358;9.752;2022-10-16T14:10:47;1.83;;;0.70;;
16612;SDS011;8419;52.358;9.752;2022-10-16T14:13:36;0.50;;;0.50;;
16612;SDS011;8419;52.358;9.752;2022-10-16T14:16:25;0.82;;;0.60;;
16612;SDS011;8419;52.358;9.752;2022-10-16T14:19:14;1.62;;;0.50;;
16612;SDS011;8419;52.358;9.752;2022-10-16T14:22:20;1.10;;;0.50;;
16612;SDS011;8419;52.358;9.752;2022-10-16T14:25:23;0.60;;;0.57;;
16612;SDS011;8419;52.358;9.752;2022-10-16T14:28:15;1.12;;;0.47;;
16612;SDS011;8419;52.358;9.752;2022-10-16T14:31:03;2.10;;;0.50;;
16612;SDS011;8419;52.358;9.752;2022-10-16T14:34:28;1.52;;;0.57;;
16612;SDS011;8419;52.358;9.752;2022-10-16T14:37:19;1.90;;;0.70;;
16612;SDS011;8419;52.358;9.752;2022-10-16T14:40:13;1.83;;;0.50;;
16612;SDS011;8419;52.358;9.752;2022-10-16T14:42:59;1.08;;;0.45;;
16612;SDS011;8419;52.358;9.752;2022-10-16T14:45:49;0.85;;;0.65;;
16612;SDS011;8419;52.358;9.752;2022-10-16T14:48:39;1.15;;;0.50;;
16612;SDS011;8419;52.358;9.752;2022-10-16T14:51:26;0.57;;;0.47;;
16612;SDS011;8419;52.358;9.752;2022-10-16T14:54:12;1.42;;;0.50;;
16612;SDS011;8419;52.358;9.752;2022-10-16T14:56:59;2.22;;;0.55;;
16612;SDS011;8419;52.358;9.752;2022-10-16T14:59:45;0.73;;;0.50;;
16612;SDS011;8419;52.358;9.752;2022-10-16T15:02:33;0.82;;;0.50;;
16612;SDS011;8419;52.358;9.752;2022-10-16T15:05:21;3.10;;;0.70;;
16612;SDS011;8419;52.358;9.752;2022-10-16T15:08:09;2.17;;;0.68;;
16612;SDS011;8419;52.358;9.752;2022-10-16T15:10:56;1.00;;;0.40;;
16612;SDS011;8419;52.358;9.752;2022-10-16T15:13:42;1.87;;;0.80;;
16612;SDS011;8419;52.358;9.752;2022-10-16T15:16:27;2.28;;;0.77;;
16612;SDS011;8419;52.358;9.752;2022-10-16T15:19:13;2.90;;;0.50;;
16612;SDS011;8419;52.358;9.752;2022-10-16T15:21:59;1.58;;;0.60;;
16612;SDS011;8419;52.358;9.752;2022-10-16T15:24:45;0.60;;;0.57;;
16612;SDS011;8419;52.358;9.752;2022-10-16T15:27:31;1.70;;;0.80;;
16612;SDS011;8419;52.358;9.752;2022-10-16T15:30:23;0.70;;;0.43;;
16612;SDS011;8419;52.358;9.752;2022-10-16T15:33:11;0.57;;;0.57;;
16612;SDS011;8419;52.358;9.752;2022-10-16T15:36:00;1.75;;;0.62;;
16612;SDS011;8419;52.358;9.752;2022-10-16T15:38:47;0.80;;;0.60;;
16612;SDS011;8419;52.358;9.752;2022-10-16T15:41:33;4.10;;;0.75;;
16612;SDS011;8419;52.358;9.752;2022-10-16T15:44:19;2.05;;;0.88;;
16612;SDS011;8419;52.358;9.752;2022-10-16T15:47:07;0.93;;;0.70;;
16612;SDS011;8419;52.358;9.752;2022-10-16T15:49:54;1.30;;;0.60;;
16612;SDS011;8419;52.358;9.752;2022-10-16T15:52:40;2.85;;;1.00;;
16612;SDS011;8419;52.358;9.752;2022-10-16T15:55:26;1.92;;;0.70;;
16612;SDS011;8419;52.358;9.752;2022-10-16T15:58:11;0.98;;;0.60;;
16612;SDS011;8419;52.358;9.752;2022-10-16T16:00:57;3.90;;;0.70;;
16612;SDS011;8419;52.358;9.752;2022-10-16T16:03:45;3.05;;;0.82;;
16612;SDS011;8419;52.358;9.752;2022-10-16T16:06:30;3.72;;;1.17;;
16612;SDS011;8419;52.358;9.752;2022-10-16T16:09:16;3.22;;;1.67;;
16612;SDS011;8419;52.358;9.752;2022-10-16T16:12:03;1.92;;;1.23;;
16612;SDS011;8419;52.358;9.752;2022-10-16T16:14:49;6.62;;;1.27;;
16612;SDS011;8419;52.358;9.752;2022-10-16T16:17:35;3.65;;;1.37;;
16612;SDS011;8419;52.358;9.752;2022-10-16T16:20:24;2.72;;;1.10;;
16612;SDS011;8419;52.358;9.752;2022-10-16T16:23:10;8.45;;;1.25;;
16612;SDS011;8419;52.358;9.752;2022-10-16T16:26:02;3.83;;;1.90;;
16612;SDS011;8419;52.358;9.752;2022-10-16T16:28:49;6.28;;;1.60;;
16612;SDS011;8419;52.358;9.752;2022-10-16T16:31:36;4.55;;;2.10;;
16612;SDS011;8419;52.358;9.752;2022-10-16T16:34:22;2.53;;;1.58;;
16612;SDS011;8419;52.358;9.752;2022-10-16T16:37:09;2.95;;;1.40;;
16612;SDS011;8419;52.358;9.752;2022-10-16T16:39:54;2.72;;;1.12;;
16612;SDS011;8419;52.358;9.752;2022-10-16T16:42:42;2.53;;;1.37;;
16612;SDS011;8419;52.358;9.752;2022-10-16T16:45:28;3.62;;;1.75;;
16612;SDS011;8419;52.358;9.752;2022-10-16T16:48:14;6.57;;;1.92;;
16612;SDS011;8419;52.358;9.752;2022-10-16T16:51:02;8.10;;;1.90;;
16612;SDS011;8419;52.358;9.752;2022-10-16T16:53:50;7.15;;;3.30;;
16612;SDS011;8419;52.358;9.752;2022-10-16T16:56:38;5.50;;;3.03;;
16612;SDS011;8419;52.358;9.752;2022-10-16T16:59:27;5.75;;;3.15;;
16612;SDS011;8419;52.358;9.752;2022-10-16T17:02:13;3.80;;;2.33;;
16612;SDS011;8419;52.358;9.752;2022-10-16T17:04:58;7.62;;;2.95;;
16612;SDS011;8419;52.358;9.752;2022-10-16T17:07:44;6.85;;;2.95;;
16612;SDS011;8419;52.358;9.752;2022-10-16T17:10:29;5.93;;;3.30;;
16612;SDS011;8419;52.358;9.752;2022-10-16T17:13:15;6.50;;;3.28;;
16612;SDS011;8419;52.358;9.752;2022-10-16T17:16:01;6.45;;;3.12;;
16612;SDS011;8419;52.358;9.752;2022-10-16T17:18:46;5.25;;;2.95;;